createdAt,value
2023-03-21T00:00:48.436Z,3.50
2023-03-21T00:03:16.547Z,3.07
2023-03-21T00:05:49.968Z,3.23
2023-03-21T00:08:17.774Z,3.17
2023-03-21T00:10:45.775Z,2.50
2023-03-21T00:13:14.018Z,2.30
2023-03-21T00:16:06.294Z,3.23
2023-03-21T00:18:41.770Z,4.87
2023-03-21T00:24:00.961Z,2.90
2023-03-21T00:26:29.070Z,3.57
2023-03-21T00:28:56.698Z,2.80
2023-03-21T00:31:25.886Z,2.50
2023-03-21T00:33:53.687Z,2.50
2023-03-21T00:36:21.710Z,2.03
2023-03-21T00:38:49.376Z,1.80
2023-03-21T00:41:26.332Z,1.67
2023-03-21T00:44:04.968Z,3.07
2023-03-21T00:46:43.910Z,2.47
2023-03-21T00:49:17.090Z,2.43
2023-03-21T00:51:44.972Z,3.30
2023-03-21T00:54:14.087Z,2.70
2023-03-21T00:56:45.114Z,3.03
2023-03-21T00:59:12.748Z,3.27
2023-03-21T01:01:41.930Z,3.20
2023-03-21T01:04:13.638Z,3.67
2023-03-21T01:06:42.833Z,2.67
2023-03-21T01:09:14.204Z,3.03
2023-03-21T01:11:42.235Z,2.93
2023-03-21T01:14:21.889Z,2.53
2023-03-21T01:16:53.133Z,3.40
2023-03-21T01:19:35.187Z,3.37
2023-03-21T01:22:08.853Z,3.27
2023-03-21T01:24:40.576Z,2.10
2023-03-21T01:27:11.305Z,2.83
2023-03-21T01:29:38.898Z,3.10
2023-03-21T01:32:08.041Z,2.87
2023-03-21T01:34:36.209Z,3.00
2023-03-21T01:37:04.456Z,2.63
2023-03-21T01:39:37.060Z,1.83
2023-03-21T01:42:05.322Z,2.63
2023-03-21T01:44:32.959Z,2.33
2023-03-21T01:47:11.077Z,2.33
2023-03-21T01:49:50.560Z,2.07
2023-03-21T01:52:36.689Z,2.20
2023-03-21T01:55:12.548Z,2.00
2023-03-21T01:58:04.324Z,3.20
2023-03-21T02:00:41.691Z,2.30
2023-03-21T02:03:34.932Z,2.87
2023-03-21T02:06:22.047Z,2.27
2023-03-21T02:08:55.556Z,2.30
2023-03-21T02:11:23.782Z,2.10
2023-03-21T02:14:01.122Z,2.17
2023-03-21T02:16:50.324Z,3.63
2023-03-21T02:19:53.396Z,2.53
2023-03-21T02:22:46.304Z,2.63
2023-03-21T02:25:31.856Z,2.27
2023-03-21T02:28:07.944Z,3.07
2023-03-21T02:31:03.950Z,3.23
2023-03-21T02:33:49.252Z,2.63
2023-03-21T02:36:26.009Z,2.37
2023-03-21T02:39:00.880Z,3.43
2023-03-21T02:41:40.445Z,2.80
2023-03-21T02:44:17.968Z,2.33
2023-03-21T02:47:02.916Z,1.93
2023-03-21T02:49:42.889Z,2.37
2023-03-21T02:52:31.885Z,2.63
2023-03-21T02:55:13.565Z,1.83
2023-03-21T02:57:52.466Z,2.23
2023-03-21T03:00:23.268Z,1.97
2023-03-21T03:03:06.329Z,2.27
2023-03-21T03:05:42.925Z,2.03
2023-03-21T03:08:32.469Z,2.70
2023-03-21T03:11:22.301Z,2.67
2023-03-21T03:14:15.528Z,2.80
2023-03-21T03:17:02.845Z,2.70
2023-03-21T03:19:41.685Z,2.77
2023-03-21T03:22:24.647Z,2.33
2023-03-21T03:25:02.860Z,2.97
2023-03-21T03:27:40.073Z,1.30
2023-03-21T03:30:11.074Z,2.50
2023-03-21T03:32:44.915Z,2.30
2023-03-21T03:35:15.903Z,2.60
2023-03-21T03:37:46.793Z,2.23
2023-03-21T03:40:20.182Z,2.53
2023-03-21T03:43:04.511Z,2.87
2023-03-21T03:45:43.569Z,3.13
2023-03-21T03:48:19.498Z,2.37
2023-03-21T03:50:52.847Z,2.60
2023-03-21T03:53:31.837Z,2.57
2023-03-21T03:56:01.613Z,3.63
2023-03-21T03:58:44.548Z,2.27
2023-03-21T04:01:15.289Z,2.27
2023-03-21T04:03:50.548Z,2.33
2023-03-21T04:06:22.090Z,2.30
2023-03-21T04:08:51.978Z,2.93
2023-03-21T04:11:19.855Z,2.37
2023-03-21T04:13:53.275Z,3.23
2023-03-21T04:16:23.462Z,2.63
2023-03-21T04:18:52.474Z,2.47
2023-03-21T04:21:21.596Z,3.37
2023-03-21T04:23:49.461Z,1.97
2023-03-21T04:26:17.178Z,2.40
2023-03-21T04:29:00.344Z,2.63
2023-03-21T04:31:56.922Z,2.57
2023-03-21T04:34:28.309Z,2.23
2023-03-21T04:36:59.011Z,3.43
2023-03-21T04:39:26.874Z,2.50
2023-03-21T04:41:55.014Z,3.43
2023-03-21T04:44:24.188Z,2.80
2023-03-21T04:46:52.160Z,4.77
2023-03-21T04:49:21.384Z,2.33
2023-03-21T04:51:49.033Z,2.47
2023-03-21T04:54:21.139Z,2.07
2023-03-21T04:56:48.746Z,3.37
2023-03-21T04:59:17.490Z,2.70
2023-03-21T05:01:46.760Z,2.77
2023-03-21T05:04:15.740Z,2.97
2023-03-21T05:06:43.951Z,2.70
2023-03-21T05:09:12.843Z,3.10
2023-03-21T05:11:41.831Z,2.87
2023-03-21T05:14:15.343Z,2.80
2023-03-21T05:16:53.031Z,3.10
2023-03-21T05:19:23.657Z,3.40
2023-03-21T05:21:52.992Z,2.67
2023-03-21T05:24:23.844Z,2.77
2023-03-21T05:26:56.016Z,2.57
2023-03-21T05:29:27.594Z,2.97
2023-03-21T05:32:03.511Z,3.47
2023-03-21T05:34:32.411Z,2.60
2023-03-21T05:37:01.173Z,2.53
2023-03-21T05:39:42.694Z,2.00
2023-03-21T05:42:18.435Z,1.93
2023-03-21T05:44:47.424Z,2.80
2023-03-21T05:47:19.004Z,2.20
2023-03-21T05:49:48.447Z,2.87
2023-03-21T05:52:16.564Z,2.30
2023-03-21T05:54:46.235Z,2.70
2023-03-21T05:57:13.862Z,3.87
2023-03-21T05:59:58.556Z,2.63
2023-03-21T06:02:28.836Z,3.40
2023-03-21T06:05:00.663Z,2.13
2023-03-21T06:07:28.245Z,2.63
2023-03-21T06:09:56.433Z,3.13
2023-03-21T06:12:24.076Z,2.57
2023-03-21T06:15:14.959Z,3.07
2023-03-21T06:17:55.904Z,3.37
2023-03-21T06:20:23.548Z,3.17
2023-03-21T06:22:54.809Z,3.97
2023-03-21T06:25:22.979Z,3.10
2023-03-21T06:27:50.765Z,3.13
2023-03-21T06:30:19.969Z,3.27
2023-03-21T06:33:15.371Z,2.73
2023-03-21T06:35:44.253Z,2.83
2023-03-21T06:38:12.134Z,3.07
2023-03-21T06:40:40.869Z,3.10
2023-03-21T06:43:08.524Z,2.17
2023-03-21T06:45:36.383Z,3.00
2023-03-21T06:48:04.325Z,3.80
2023-03-21T06:50:44.230Z,3.23
2023-03-21T06:53:12.104Z,2.43
2023-03-21T06:55:58.647Z,3.67
2023-03-21T06:58:27.036Z,2.70
2023-03-21T07:00:55.198Z,3.20
2023-03-21T07:03:23.516Z,4.60
2023-03-21T07:05:53.964Z,4.47
2023-03-21T07:08:23.694Z,5.63
2023-03-21T07:10:51.615Z,4.13
2023-03-21T07:13:19.235Z,4.00
2023-03-21T07:15:54.342Z,3.53
2023-03-21T07:18:22.039Z,4.07
2023-03-21T07:20:51.896Z,3.50
2023-03-21T07:23:23.285Z,4.20
2023-03-21T07:25:52.371Z,3.83
2023-03-21T07:28:20.854Z,3.33
2023-03-21T07:30:55.236Z,3.67
2023-03-21T07:33:23.280Z,3.43
2023-03-21T07:35:51.669Z,3.37
2023-03-21T07:38:21.519Z,3.13
2023-03-21T07:40:49.509Z,3.27
2023-03-21T07:45:47.937Z,3.17
2023-03-21T07:48:17.504Z,3.20
2023-03-21T07:50:45.296Z,3.00
2023-03-21T07:53:13.015Z,3.37
2023-03-21T07:55:41.918Z,2.73
2023-03-21T07:58:09.937Z,3.10
2023-03-21T08:00:37.718Z,2.77
2023-03-21T08:03:06.289Z,3.50
2023-03-21T08:05:36.634Z,4.03
2023-03-21T08:08:05.115Z,3.50
2023-03-21T08:10:32.729Z,3.10
2023-03-21T08:13:01.944Z,3.03
2023-03-21T08:15:30.065Z,2.73
2023-03-21T08:17:59.634Z,2.97
2023-03-21T08:20:27.660Z,2.60
2023-03-21T08:22:55.434Z,3.23
2023-03-21T08:25:24.038Z,2.93
2023-03-21T08:27:52.640Z,3.63
2023-03-21T08:30:23.754Z,3.27
2023-03-21T08:32:51.430Z,3.13
2023-03-21T08:35:20.648Z,2.93
2023-03-21T08:37:48.799Z,3.40
2023-03-21T08:40:20.679Z,3.30
2023-03-21T08:42:48.536Z,3.07
2023-03-21T08:45:17.850Z,2.97
2023-03-21T08:47:47.454Z,2.77
2023-03-21T08:50:17.735Z,2.97
2023-03-21T08:52:45.473Z,3.67
2023-03-21T08:55:14.819Z,2.67
2023-03-21T08:57:42.896Z,2.40
2023-03-21T09:00:14.763Z,2.20
2023-03-21T09:02:43.864Z,2.67
2023-03-21T09:05:13.825Z,2.47
2023-03-21T09:07:42.388Z,2.60
2023-03-21T09:10:21.083Z,2.17
2023-03-21T09:12:51.637Z,2.30
2023-03-21T09:15:21.945Z,1.93
2023-03-21T09:17:52.617Z,1.50
2023-03-21T09:20:26.269Z,3.90
2023-03-21T09:22:54.704Z,1.30
2023-03-21T09:25:22.439Z,1.87
2023-03-21T09:27:51.430Z,1.07
2023-03-21T09:30:22.286Z,2.00
2023-03-21T09:32:53.349Z,1.23
2023-03-21T09:35:22.755Z,1.90
2023-03-21T09:37:50.910Z,2.90
2023-03-21T09:40:21.251Z,1.57
2023-03-21T09:42:59.907Z,1.70
2023-03-21T09:45:36.422Z,1.30
2023-03-21T09:48:07.685Z,2.67
2023-03-21T09:50:39.038Z,1.30
2023-03-21T09:53:12.368Z,1.20
2023-03-21T09:55:42.686Z,1.20
2023-03-21T09:58:27.117Z,1.10
2023-03-21T10:01:02.324Z,1.70
2023-03-21T10:03:35.031Z,1.63
2023-03-21T10:06:08.320Z,1.93
2023-03-21T10:08:41.419Z,1.50
2023-03-21T10:11:14.581Z,1.27
2023-03-21T10:13:45.590Z,2.20
2023-03-21T10:16:17.464Z,2.40
2023-03-21T10:18:46.861Z,2.33
2023-03-21T10:21:47.442Z,1.70
2023-03-21T10:24:13.461Z,2.13
2023-03-21T10:26:41.598Z,1.90
2023-03-21T10:29:13.425Z,2.00
2023-03-21T10:31:42.796Z,1.33
2023-03-21T10:34:17.176Z,1.73
2023-03-21T10:36:46.823Z,2.03
2023-03-21T10:39:25.833Z,1.83
2023-03-21T10:41:53.473Z,2.83
2023-03-21T10:44:22.268Z,2.77
2023-03-21T10:46:55.114Z,1.40
2023-03-21T10:49:23.374Z,1.60
2023-03-21T10:51:54.871Z,2.43
2023-03-21T10:54:29.207Z,2.47
2023-03-21T10:56:59.735Z,2.00
2023-03-21T10:59:34.606Z,2.00
2023-03-21T11:02:05.561Z,1.60
2023-03-21T11:04:34.158Z,2.10
2023-03-21T11:07:08.144Z,2.53
2023-03-21T11:09:47.739Z,2.97
2023-03-21T11:12:17.400Z,2.23
2023-03-21T11:14:46.926Z,2.43
2023-03-21T11:17:23.148Z,1.97
2023-03-21T11:19:53.137Z,2.43
2023-03-21T11:22:24.636Z,2.87
2023-03-21T11:24:55.147Z,2.33
2023-03-21T11:27:22.861Z,2.97
2023-03-21T11:29:52.482Z,3.20
2023-03-21T11:32:26.002Z,2.47
2023-03-21T11:34:58.725Z,2.60
2023-03-21T11:37:29.619Z,2.50
2023-03-21T11:40:06.255Z,3.43
2023-03-21T11:42:42.342Z,3.03
2023-03-21T11:45:13.872Z,3.00
2023-03-21T11:47:41.835Z,3.00
2023-03-21T11:50:19.322Z,3.13
2023-03-21T11:53:03.056Z,3.57
2023-03-21T11:55:42.198Z,3.83
2023-03-21T11:58:24.446Z,2.10
2023-03-21T12:01:02.259Z,2.90
2023-03-21T12:03:55.135Z,2.93
2023-03-21T12:06:29.637Z,2.67
2023-03-21T12:09:22.001Z,3.40
2023-03-21T12:12:04.023Z,3.80
2023-03-21T12:14:41.409Z,3.13
2023-03-21T12:17:22.215Z,3.17
2023-03-21T12:20:02.131Z,2.90
2023-03-21T12:22:35.796Z,3.17
2023-03-21T12:25:08.657Z,2.63
2023-03-21T12:27:46.404Z,3.37
2023-03-21T12:30:32.959Z,2.57
2023-03-21T12:33:25.396Z,2.70
2023-03-21T12:36:12.964Z,3.43
2023-03-21T12:38:44.497Z,3.30
2023-03-21T12:41:34.105Z,3.30
2023-03-21T12:44:05.339Z,2.57
2023-03-21T12:46:38.309Z,3.13
2023-03-21T12:49:10.953Z,2.63
2023-03-21T12:51:42.849Z,2.97
2023-03-21T12:54:17.959Z,2.57
2023-03-21T12:56:53.094Z,2.93
2023-03-21T12:59:36.255Z,2.80
2023-03-21T13:02:18.336Z,2.83
2023-03-21T13:04:52.306Z,3.30
2023-03-21T13:07:25.125Z,1.93
2023-03-21T13:09:55.206Z,3.60
2023-03-21T13:12:53.034Z,2.73
2023-03-21T13:15:44.750Z,2.70
2023-03-21T13:18:20.896Z,4.13
2023-03-21T13:20:51.301Z,2.90
2023-03-21T13:23:19.646Z,2.27
2023-03-21T13:25:49.873Z,2.53
2023-03-21T13:28:23.145Z,2.03
2023-03-21T13:30:52.147Z,2.00
2023-03-21T13:33:26.019Z,2.53
2023-03-21T13:36:05.262Z,2.30
2023-03-21T13:38:35.117Z,2.33
2023-03-21T13:41:08.576Z,1.60
2023-03-21T13:43:43.595Z,2.53
2023-03-21T13:46:13.212Z,2.40
2023-03-21T13:48:59.430Z,2.33
2023-03-21T13:51:44.757Z,2.33
2023-03-21T13:54:24.181Z,2.10
2023-03-21T13:56:57.778Z,2.10
2023-03-21T13:59:43.350Z,2.73
2023-03-21T14:02:33.831Z,2.30
2023-03-21T14:05:06.384Z,3.00
2023-03-21T14:07:36.726Z,2.80
2023-03-21T14:10:09.266Z,2.40
2023-03-21T14:12:40.636Z,2.67
2023-03-21T14:15:18.050Z,2.57
2023-03-21T14:17:51.761Z,2.40
2023-03-21T14:20:23.822Z,2.80
2023-03-21T14:22:51.467Z,2.93
2023-03-21T14:25:21.337Z,4.03
2023-03-21T14:27:51.276Z,2.77
2023-03-21T14:30:26.867Z,2.87
2023-03-21T14:32:57.370Z,2.30
2023-03-21T14:35:26.562Z,3.53
2023-03-21T14:37:54.133Z,2.03
2023-03-21T14:40:24.499Z,2.13
2023-03-21T14:42:52.739Z,3.87
2023-03-21T14:45:24.017Z,2.27
2023-03-21T14:47:59.739Z,3.63
2023-03-21T14:50:34.862Z,2.70
2023-03-21T14:53:02.717Z,2.67
2023-03-21T14:55:30.542Z,1.90
2023-03-21T14:57:58.308Z,3.20
2023-03-21T15:00:29.868Z,2.73
2023-03-21T15:02:59.961Z,2.60
2023-03-21T15:05:32.444Z,2.07
2023-03-21T15:08:01.888Z,2.50
2023-03-21T15:10:32.450Z,2.90
2023-03-21T15:13:03.381Z,2.57
2023-03-21T15:15:33.223Z,3.00
2023-03-21T15:18:05.604Z,3.73
2023-03-21T15:20:37.515Z,3.30
2023-03-21T15:23:10.614Z,3.60
2023-03-21T15:25:39.487Z,2.83
2023-03-21T15:28:07.384Z,2.93
2023-03-21T15:30:36.578Z,3.97
2023-03-21T15:33:09.897Z,4.17
2023-03-21T15:35:41.199Z,3.23
2023-03-21T15:38:23.222Z,2.80
2023-03-21T15:40:51.148Z,4.17
2023-03-21T15:43:20.644Z,2.87
2023-03-21T15:45:51.784Z,2.53
2023-03-21T15:48:23.151Z,3.37
2023-03-21T15:50:57.270Z,3.03
2023-03-21T15:53:25.521Z,2.47
2023-03-21T15:56:02.038Z,2.57
2023-03-21T15:58:36.027Z,2.97
2023-03-21T16:01:07.721Z,3.67
2023-03-21T16:03:37.997Z,3.07
2023-03-21T16:06:11.022Z,2.93
2023-03-21T16:08:45.896Z,2.97
2023-03-21T16:11:18.339Z,2.60
2023-03-21T16:13:46.301Z,2.70
2023-03-21T16:16:22.327Z,3.33
2023-03-21T16:18:50.044Z,2.27
2023-03-21T16:21:20.441Z,2.97
2023-03-21T16:23:49.004Z,2.17
2023-03-21T16:26:19.734Z,1.97
2023-03-21T16:28:47.605Z,1.63
2023-03-21T16:31:18.440Z,1.60
2023-03-21T16:33:48.654Z,1.70
2023-03-21T16:36:18.567Z,2.57
2023-03-21T16:38:47.447Z,1.47
2023-03-21T16:41:15.776Z,1.80
2023-03-21T16:43:44.772Z,3.67
2023-03-21T16:46:16.522Z,2.00
2023-03-21T16:48:45.783Z,2.53
2023-03-21T16:51:16.323Z,2.60
2023-03-21T16:53:44.579Z,2.17
2023-03-21T16:56:16.530Z,2.03
2023-03-21T16:59:07.793Z,2.20
2023-03-21T17:01:38.307Z,2.03
2023-03-21T17:04:06.126Z,2.33
2023-03-21T17:06:41.042Z,2.23
2023-03-21T17:09:08.663Z,1.47
2023-03-21T17:11:37.458Z,2.30
2023-03-21T17:14:05.099Z,2.23
2023-03-21T17:16:33.225Z,2.90
2023-03-21T17:19:01.713Z,2.70
2023-03-21T17:21:30.701Z,3.27
2023-03-21T17:23:59.696Z,2.80
2023-03-21T17:26:30.352Z,2.17
2023-03-21T17:28:58.534Z,2.83
2023-03-21T17:31:27.997Z,1.23
2023-03-21T17:33:55.776Z,2.20
2023-03-21T17:36:29.358Z,1.80
2023-03-21T17:38:57.769Z,1.50
2023-03-21T17:41:27.496Z,2.17
2023-03-21T17:43:55.787Z,2.27
2023-03-21T17:46:27.107Z,2.53
2023-03-21T17:48:55.103Z,2.10
2023-03-21T17:51:25.993Z,2.60
2023-03-21T17:53:54.250Z,2.93
2023-03-21T17:56:25.804Z,2.13
2023-03-21T17:58:55.364Z,3.17
2023-03-21T18:01:23.707Z,3.33
2023-03-21T18:03:51.552Z,3.27
2023-03-21T18:06:21.572Z,3.07
2023-03-21T18:08:50.060Z,3.87
2023-03-21T18:11:18.467Z,2.90
2023-03-21T18:13:47.524Z,2.93
2023-03-21T18:16:18.160Z,3.53
2023-03-21T18:18:46.666Z,3.03
2023-03-21T18:21:14.515Z,2.47
2023-03-21T18:23:45.941Z,2.00
2023-03-21T18:26:18.208Z,2.27
2023-03-21T18:28:46.767Z,1.23
2023-03-21T18:31:19.810Z,1.63
2023-03-21T18:33:50.175Z,2.40
2023-03-21T18:36:24.985Z,2.70
2023-03-21T18:38:57.807Z,2.73
2023-03-21T18:41:25.949Z,1.83
2023-03-21T18:44:09.358Z,2.10
2023-03-21T18:46:47.029Z,2.00
2023-03-21T18:49:58.729Z,2.17
2023-03-21T18:52:03.040Z,1.93
2023-03-21T18:54:31.614Z,1.83
2023-03-21T18:57:34.552Z,2.13
2023-03-21T18:59:47.643Z,1.97
2023-03-21T19:02:16.870Z,1.60
2023-03-21T19:04:45.087Z,1.73
2023-03-21T19:07:13.149Z,2.13
2023-03-21T19:12:29.657Z,1.60
2023-03-21T19:14:57.562Z,1.70
2023-03-21T19:18:21.845Z,2.03
2023-03-21T19:20:16.529Z,1.83
2023-03-21T19:22:44.392Z,2.83
2023-03-21T19:25:13.142Z,2.23
2023-03-21T19:27:41.478Z,3.63
2023-03-21T19:30:15.269Z,2.27
2023-03-21T19:32:45.131Z,2.03
2023-03-21T19:35:14.115Z,2.10
2023-03-21T19:37:42.234Z,2.60
2023-03-21T19:40:11.191Z,2.43
2023-03-21T19:42:42.853Z,2.07
2023-03-21T19:45:11.893Z,2.20
2023-03-21T19:47:39.637Z,3.10
2023-03-21T19:52:58.233Z,2.90
2023-03-21T19:55:27.016Z,4.70
2023-03-21T19:57:54.842Z,4.20
2023-03-21T20:00:22.926Z,3.33
2023-03-21T20:02:51.581Z,3.40
2023-03-21T20:05:22.067Z,2.50
2023-03-21T20:07:50.125Z,2.57
2023-03-21T20:10:17.760Z,2.30
2023-03-21T20:12:46.137Z,2.73
2023-03-21T20:15:20.869Z,2.57
2023-03-21T20:17:50.130Z,3.37
2023-03-21T20:20:19.114Z,4.47
2023-03-21T20:23:10.774Z,3.20
2023-03-21T20:25:41.146Z,3.43
2023-03-21T20:28:24.559Z,2.70
2023-03-21T20:30:56.759Z,3.60
2023-03-21T20:33:25.101Z,2.67
2023-03-21T20:38:46.247Z,2.63
2023-03-21T20:41:14.416Z,2.60
2023-03-21T20:46:30.630Z,3.67
2023-03-21T20:48:58.371Z,3.33
2023-03-21T20:54:18.431Z,4.33
2023-03-21T20:56:46.157Z,3.77
2023-03-21T20:59:26.172Z,5.57
2023-03-21T21:01:54.867Z,6.53
2023-03-21T21:04:23.161Z,4.97
2023-03-21T21:06:55.007Z,4.73
2023-03-21T21:09:24.097Z,5.13
2023-03-21T21:12:09.722Z,5.70
2023-03-21T21:14:38.229Z,7.50
2023-03-21T21:17:26.704Z,4.00
2023-03-21T21:19:55.357Z,5.27
2023-03-21T21:22:23.020Z,5.40
2023-03-21T21:24:51.945Z,3.90
2023-03-21T21:27:19.886Z,4.33
2023-03-21T21:29:49.859Z,4.80
2023-03-21T21:32:19.737Z,5.23
2023-03-21T21:34:48.003Z,5.37
2023-03-21T21:37:15.648Z,4.37
2023-03-21T21:39:43.261Z,4.03
2023-03-21T21:42:12.295Z,4.33
2023-03-21T21:44:44.080Z,3.87
2023-03-21T21:47:12.214Z,4.50
2023-03-21T21:49:39.969Z,4.00
2023-03-21T21:52:08.555Z,4.70
2023-03-21T21:54:36.171Z,5.33
2023-03-21T21:57:04.204Z,4.20
2023-03-21T21:59:33.878Z,3.83
2023-03-21T22:02:05.956Z,3.70
2023-03-21T22:04:34.587Z,4.67
2023-03-21T22:07:03.038Z,3.53
2023-03-21T22:09:30.745Z,4.37
2023-03-21T22:11:59.083Z,3.70
2023-03-21T22:14:26.700Z,4.00
2023-03-21T22:16:55.775Z,4.20
2023-03-21T22:19:23.378Z,4.30
2023-03-21T22:21:51.525Z,3.97
2023-03-21T22:24:19.129Z,3.23
2023-03-21T22:26:47.937Z,4.77
2023-03-21T22:29:15.560Z,5.40
2023-03-21T22:31:43.473Z,3.33
2023-03-21T22:34:12.539Z,3.57
2023-03-21T22:36:47.318Z,3.80
2023-03-21T22:39:14.913Z,4.17
2023-03-21T22:41:42.510Z,3.57
2023-03-21T22:44:10.260Z,4.03
2023-03-21T22:46:37.901Z,5.10
2023-03-21T22:49:05.856Z,5.33
2023-03-21T22:51:35.020Z,3.90
2023-03-21T22:54:02.662Z,4.70
2023-03-21T22:56:30.420Z,5.93
2023-03-21T22:59:00.139Z,4.63
2023-03-21T23:01:28.112Z,4.37
2023-03-21T23:03:55.847Z,3.57
2023-03-21T23:06:23.778Z,5.33
2023-03-21T23:08:52.707Z,5.63
2023-03-21T23:11:21.272Z,5.50
2023-03-21T23:13:58.717Z,5.83
2023-03-21T23:16:34.780Z,4.97
2023-03-21T23:19:03.178Z,5.47
2023-03-21T23:21:34.443Z,5.10
2023-03-21T23:24:03.588Z,6.20
2023-03-21T23:26:31.982Z,5.97
2023-03-21T23:28:59.723Z,5.87
2023-03-21T23:31:28.314Z,4.80
2023-03-21T23:33:58.750Z,5.43
2023-03-21T23:36:26.547Z,6.07
2023-03-21T23:38:54.710Z,6.17
2023-03-21T23:41:25.574Z,4.97
2023-03-21T23:43:53.578Z,5.23
2023-03-21T23:46:21.833Z,5.37
2023-03-21T23:48:50.215Z,5.73
2023-03-21T23:51:19.277Z,6.17
2023-03-21T23:53:47.796Z,4.37
2023-03-21T23:56:17.378Z,5.70
2023-03-21T23:58:47.432Z,6.70
